createdAt,value
2018-05-10T00:02:24.355Z,10.50
2018-05-10T00:04:52.679Z,8.23
2018-05-10T00:07:20.225Z,8.40
2018-05-10T00:09:47.793Z,7.33
2018-05-10T00:12:16.126Z,7.07
2018-05-10T00:14:45.741Z,8.03
2018-05-10T00:17:14.067Z,10.67
2018-05-10T00:19:41.621Z,11.53
2018-05-10T00:22:09.233Z,8.70
2018-05-10T00:24:36.800Z,11.90
2018-05-10T00:27:05.136Z,10.37
2018-05-10T00:29:32.708Z,9.77
2018-05-10T00:32:00.317Z,14.13
2018-05-10T00:34:27.877Z,12.10
2018-05-10T00:36:56.893Z,9.80
2018-05-10T00:39:24.456Z,8.50
2018-05-10T00:41:52.013Z,16.57
2018-05-10T00:44:19.585Z,9.10
2018-05-10T00:46:47.109Z,9.77
2018-05-10T00:49:14.684Z,9.57
2018-05-10T00:51:42.360Z,11.40
2018-05-10T00:54:09.927Z,10.57
2018-05-10T00:56:37.495Z,11.77
2018-05-10T00:59:08.312Z,14.17
2018-05-10T01:01:35.846Z,9.40
2018-05-10T01:04:03.401Z,10.80
2018-05-10T01:06:30.929Z,9.33
2018-05-10T01:08:58.503Z,11.83
2018-05-10T01:11:26.794Z,12.33
2018-05-10T01:13:54.366Z,9.23
2018-05-10T01:16:21.940Z,11.70
2018-05-10T01:18:49.507Z,9.50
2018-05-10T01:21:17.240Z,9.83
2018-05-10T01:23:44.810Z,10.53
2018-05-10T01:26:12.350Z,9.43
2018-05-10T01:28:39.918Z,14.50
2018-05-10T01:31:07.454Z,12.23
2018-05-10T01:33:35.046Z,10.00
2018-05-10T01:36:14.295Z,12.43
2018-05-10T01:38:41.874Z,13.37
2018-05-10T01:41:09.448Z,11.23
2018-05-10T01:43:38.781Z,12.67
2018-05-10T01:46:07.108Z,12.17
2018-05-10T01:48:35.514Z,8.50
2018-05-10T01:51:03.084Z,11.33
2018-05-10T01:53:30.618Z,12.47
2018-05-10T01:55:58.198Z,9.90
2018-05-10T01:58:25.730Z,12.83
2018-05-10T02:00:53.310Z,13.00
2018-05-10T02:03:20.889Z,12.63
2018-05-10T02:05:50.509Z,12.13
2018-05-10T02:08:18.079Z,8.33
2018-05-10T02:10:45.635Z,12.57
2018-05-10T02:13:13.953Z,10.30
2018-05-10T02:15:41.519Z,10.90
2018-05-10T02:18:09.054Z,10.13
2018-05-10T02:20:36.635Z,10.47
2018-05-10T02:23:04.228Z,12.07
2018-05-10T02:25:31.753Z,10.53
2018-05-10T02:30:52.733Z,14.40
2018-05-10T02:33:20.315Z,13.47
2018-05-10T02:35:47.903Z,13.63
2018-05-10T02:38:15.439Z,15.57
2018-05-10T02:40:43.011Z,18.53
2018-05-10T02:43:10.552Z,12.47
2018-05-10T02:45:38.125Z,15.00
2018-05-10T02:48:05.696Z,17.63
2018-05-10T02:50:33.231Z,13.10
2018-05-10T02:53:00.814Z,17.20
2018-05-10T02:55:28.347Z,16.90
2018-05-10T02:57:55.923Z,13.20
2018-05-10T03:00:23.448Z,14.63
2018-05-10T03:02:51.038Z,14.90
2018-05-10T03:05:18.597Z,17.33
2018-05-10T03:07:46.129Z,17.07
2018-05-10T03:10:14.476Z,17.60
2018-05-10T03:12:42.051Z,14.97
2018-05-10T03:15:15.303Z,16.07
2018-05-10T03:17:42.840Z,17.90
2018-05-10T03:20:10.424Z,20.30
2018-05-10T03:22:37.994Z,18.13
2018-05-10T03:25:05.514Z,15.97
2018-05-10T03:27:33.080Z,18.27
2018-05-10T03:30:00.632Z,17.70
2018-05-10T03:32:28.182Z,16.90
2018-05-10T03:34:56.520Z,17.83
2018-05-10T03:37:24.857Z,18.60
2018-05-10T03:39:52.385Z,16.83
2018-05-10T03:42:19.966Z,16.13
2018-05-10T03:44:47.501Z,16.20
2018-05-10T03:47:15.842Z,20.90
2018-05-10T03:49:43.414Z,18.23
2018-05-10T03:52:10.940Z,16.77
2018-05-10T03:54:38.521Z,16.53
2018-05-10T03:57:06.044Z,15.17
2018-05-10T03:59:35.682Z,18.60
2018-05-10T04:02:03.210Z,15.03
2018-05-10T04:04:43.398Z,15.00
2018-05-10T04:07:22.686Z,15.67
2018-05-10T04:10:02.778Z,14.33
2018-05-10T04:12:30.304Z,13.57
2018-05-10T04:14:58.642Z,16.63
2018-05-10T04:17:26.218Z,17.90
2018-05-10T04:19:53.803Z,11.77
2018-05-10T04:22:22.147Z,17.37
2018-05-10T04:24:49.687Z,13.27
2018-05-10T04:27:17.238Z,18.87
2018-05-10T04:29:44.802Z,18.80
2018-05-10T04:32:13.146Z,15.70
2018-05-10T04:34:40.732Z,20.43
2018-05-10T04:37:08.324Z,18.20
2018-05-10T04:39:35.893Z,21.07
2018-05-10T04:42:09.503Z,18.13
2018-05-10T04:44:37.150Z,20.00
2018-05-10T04:47:04.712Z,16.03
2018-05-10T04:49:32.362Z,17.57
2018-05-10T04:51:59.981Z,15.63
2018-05-10T04:54:27.603Z,14.93
2018-05-10T04:56:55.216Z,18.53
2018-05-10T04:59:22.824Z,15.40
2018-05-10T05:01:50.389Z,16.97
2018-05-10T05:07:16.595Z,18.07
2018-05-10T05:09:44.131Z,17.17
2018-05-10T05:12:12.489Z,16.93
2018-05-10T05:14:40.784Z,20.13
2018-05-10T05:17:08.366Z,20.30
2018-05-10T05:19:35.952Z,16.07
2018-05-10T05:22:03.492Z,18.93
2018-05-10T05:24:31.080Z,19.87
2018-05-10T05:26:58.750Z,14.10
2018-05-10T05:29:29.834Z,18.90
2018-05-10T05:31:57.404Z,17.80
2018-05-10T05:34:24.974Z,16.80
2018-05-10T05:36:52.530Z,18.97
2018-05-10T05:39:20.102Z,17.57
2018-05-10T05:41:47.646Z,17.47
2018-05-10T05:44:15.215Z,15.63
2018-05-10T05:46:44.372Z,16.93
2018-05-10T05:49:12.659Z,18.87
2018-05-10T05:51:42.261Z,22.00
2018-05-10T05:54:10.613Z,17.07
2018-05-10T05:56:38.144Z,14.00
2018-05-10T05:59:05.713Z,18.07
2018-05-10T06:01:33.290Z,14.53
2018-05-10T06:04:00.840Z,18.47
2018-05-10T06:06:28.403Z,13.53
2018-05-10T06:08:55.982Z,14.93
2018-05-10T06:11:23.564Z,13.87
2018-05-10T06:13:54.832Z,18.20
2018-05-10T06:16:23.519Z,13.50
2018-05-10T06:18:51.097Z,15.73
2018-05-10T06:21:18.629Z,15.03
2018-05-10T06:26:19.780Z,12.37
2018-05-10T06:28:47.375Z,16.63
2018-05-10T06:31:14.923Z,14.27
2018-05-10T06:33:42.485Z,15.40
2018-05-10T06:36:11.134Z,14.40
2018-05-10T06:38:39.491Z,11.73
2018-05-10T06:41:07.071Z,11.27
2018-05-10T06:43:35.359Z,16.67
2018-05-10T06:46:02.951Z,12.73
2018-05-10T06:48:30.490Z,13.07
2018-05-10T06:50:58.047Z,9.97
2018-05-10T06:53:25.625Z,9.27
2018-05-10T06:55:53.205Z,10.47
2018-05-10T06:58:20.745Z,9.37
2018-05-10T07:00:48.321Z,14.87
2018-05-10T07:03:15.892Z,12.43
2018-05-10T07:05:43.470Z,11.33
2018-05-10T07:08:11.049Z,8.50
2018-05-10T07:10:38.598Z,10.13
2018-05-10T07:13:06.202Z,11.93
2018-05-10T07:15:33.732Z,9.73
2018-05-10T07:18:02.961Z,13.23
2018-05-10T07:20:30.503Z,14.47
2018-05-10T07:22:58.077Z,9.03
2018-05-10T07:25:25.656Z,11.10
2018-05-10T07:27:53.213Z,9.90
2018-05-10T07:30:20.775Z,10.80
2018-05-10T07:32:48.380Z,12.07
2018-05-10T07:35:15.902Z,11.73
2018-05-10T07:37:43.463Z,10.53
2018-05-10T07:40:18.894Z,11.50
2018-05-10T07:42:46.449Z,11.83
2018-05-10T07:45:14.032Z,14.83
2018-05-10T07:47:41.584Z,11.87
2018-05-10T07:50:09.177Z,12.07
2018-05-10T07:52:37.518Z,10.90
2018-05-10T07:55:05.093Z,14.87
2018-05-10T07:57:32.693Z,11.60
2018-05-10T08:00:01.027Z,13.53
2018-05-10T08:02:28.783Z,12.63
2018-05-10T08:04:59.052Z,13.27
2018-05-10T08:07:31.364Z,11.60
2018-05-10T08:09:59.699Z,12.03
2018-05-10T08:12:27.310Z,9.80
2018-05-10T08:14:54.926Z,12.23
2018-05-10T08:17:22.525Z,9.53
2018-05-10T08:19:50.107Z,10.77
2018-05-10T08:22:17.637Z,13.33
2018-05-10T08:25:04.761Z,10.97
2018-05-10T08:27:45.891Z,12.73
2018-05-10T08:30:13.497Z,9.27
2018-05-10T08:32:41.813Z,13.90
2018-05-10T08:35:09.468Z,12.90
2018-05-10T08:37:37.029Z,10.73
2018-05-10T08:40:04.590Z,10.27
2018-05-10T08:42:32.169Z,13.80
2018-05-10T08:44:59.836Z,13.40
2018-05-10T08:47:28.186Z,11.53
2018-05-10T08:49:55.724Z,10.27
2018-05-10T08:52:26.272Z,10.07
2018-05-10T08:54:53.821Z,11.70
2018-05-10T08:57:21.387Z,11.50
2018-05-10T08:59:48.997Z,11.07
2018-05-10T09:02:16.579Z,9.77
2018-05-10T09:04:44.122Z,8.90
2018-05-10T09:07:13.717Z,11.03
2018-05-10T09:09:42.051Z,11.57
2018-05-10T09:12:09.641Z,8.77
2018-05-10T09:14:37.186Z,10.37
2018-05-10T09:17:04.746Z,9.90
2018-05-10T09:19:32.278Z,12.50
2018-05-10T09:21:59.907Z,7.83
2018-05-10T09:24:27.469Z,12.53
2018-05-10T09:26:55.069Z,15.37
2018-05-10T09:29:22.692Z,10.87
2018-05-10T09:31:50.299Z,14.93
2018-05-10T09:34:17.906Z,9.20
2018-05-10T09:36:46.272Z,10.63
2018-05-10T09:39:14.843Z,10.73
2018-05-10T09:41:42.369Z,8.20
2018-05-10T09:44:09.988Z,12.40
2018-05-10T09:46:38.408Z,10.03
2018-05-10T09:49:05.998Z,9.37
2018-05-10T09:51:40.597Z,11.30
2018-05-10T09:54:08.117Z,9.40
2018-05-10T09:56:35.768Z,8.37
2018-05-10T09:59:03.294Z,8.57
2018-05-10T10:01:30.902Z,8.13
2018-05-10T10:03:58.444Z,9.30
2018-05-10T10:06:26.797Z,10.00
2018-05-10T10:08:54.364Z,8.83
2018-05-10T10:11:21.946Z,10.73
2018-05-10T10:13:51.955Z,8.70
2018-05-10T10:16:20.293Z,7.23
2018-05-10T10:18:47.810Z,10.80
2018-05-10T10:21:15.393Z,9.83
2018-05-10T10:23:42.938Z,9.23
2018-05-10T10:26:10.518Z,8.30
2018-05-10T10:28:38.104Z,10.27
2018-05-10T10:31:05.653Z,11.47
2018-05-10T10:33:33.211Z,9.57
2018-05-10T10:36:00.950Z,11.90
2018-05-10T10:38:28.529Z,8.90
2018-05-10T10:40:56.072Z,7.83
2018-05-10T10:43:23.666Z,7.13
2018-05-10T10:45:51.199Z,9.23
2018-05-10T10:48:18.770Z,7.87
2018-05-10T10:50:46.323Z,7.20
2018-05-10T10:53:13.901Z,6.47
2018-05-10T10:55:41.425Z,6.40
2018-05-10T11:01:05.039Z,4.03
2018-05-10T11:03:32.570Z,5.03
2018-05-10T11:06:00.139Z,6.63
2018-05-10T11:08:27.681Z,7.33
2018-05-10T11:10:55.260Z,8.20
2018-05-10T11:13:22.789Z,7.27
2018-05-10T11:15:50.376Z,7.00
2018-05-10T11:18:17.947Z,8.80
2018-05-10T11:20:45.557Z,7.47
2018-05-10T11:23:23.773Z,10.87
2018-05-10T11:25:52.123Z,8.93
2018-05-10T11:28:19.650Z,6.90
2018-05-10T11:30:48.002Z,8.10
2018-05-10T11:33:16.383Z,7.30
2018-05-10T11:35:43.921Z,7.50
2018-05-10T11:38:11.455Z,7.00
2018-05-10T11:40:39.059Z,6.67
2018-05-10T11:43:07.354Z,6.77
2018-05-10T11:45:35.575Z,8.07
2018-05-10T11:48:03.141Z,7.87
2018-05-10T11:50:30.722Z,5.03
2018-05-10T11:52:58.302Z,5.43
2018-05-10T11:55:25.827Z,6.50
2018-05-10T11:57:53.412Z,6.03
2018-05-10T12:00:21.738Z,5.53
2018-05-10T12:02:49.298Z,6.77
2018-05-10T12:05:16.877Z,6.47
2018-05-10T12:08:01.340Z,5.87
2018-05-10T12:10:28.935Z,4.97
2018-05-10T12:12:57.226Z,5.97
2018-05-10T12:15:24.808Z,5.73
2018-05-10T12:17:52.413Z,5.47
2018-05-10T12:20:20.033Z,5.53
2018-05-10T12:22:47.559Z,6.53
2018-05-10T12:25:15.156Z,9.60
2018-05-10T12:27:42.730Z,9.83
2018-05-10T12:33:06.684Z,9.60
2018-05-10T12:35:34.506Z,9.00
2018-05-10T12:38:02.090Z,8.33
2018-05-10T12:40:29.659Z,13.83
2018-05-10T12:42:57.233Z,11.23
2018-05-10T12:45:24.780Z,10.67
2018-05-10T12:47:52.337Z,11.30
2018-05-10T12:50:19.940Z,12.23
2018-05-10T12:52:47.528Z,11.87
2018-05-10T12:55:18.145Z,8.90
2018-05-10T12:57:45.675Z,8.67
2018-05-10T13:00:13.244Z,7.93
2018-05-10T13:02:40.815Z,7.97
2018-05-10T13:05:08.380Z,7.63
2018-05-10T13:07:35.978Z,7.80
2018-05-10T13:10:03.531Z,6.30
2018-05-10T13:12:31.869Z,8.97
2018-05-10T13:14:59.459Z,8.63
2018-05-10T13:17:35.375Z,12.53
2018-05-10T13:20:02.971Z,11.30
2018-05-10T13:22:30.544Z,10.93
2018-05-10T13:24:58.909Z,9.63
2018-05-10T13:27:26.436Z,10.83
2018-05-10T13:29:54.008Z,13.90
2018-05-10T13:32:21.546Z,11.63
2018-05-10T13:34:49.156Z,10.60
2018-05-10T13:37:16.732Z,12.73
2018-05-10T13:39:51.999Z,15.30
2018-05-10T13:42:19.531Z,10.43
2018-05-10T13:44:47.163Z,13.93
2018-05-10T13:47:14.848Z,13.80
2018-05-10T13:49:42.382Z,11.33
2018-05-10T13:52:09.977Z,8.57
2018-05-10T13:54:38.695Z,9.97
2018-05-10T13:57:06.318Z,11.40
2018-05-10T13:59:33.916Z,10.73
2018-05-10T14:02:03.168Z,11.63
2018-05-10T14:04:30.720Z,11.30
2018-05-10T14:06:59.127Z,11.50
2018-05-10T14:09:27.491Z,13.70
2018-05-10T14:11:55.796Z,11.23
2018-05-10T14:14:23.390Z,15.47
2018-05-10T14:16:50.960Z,9.87
2018-05-10T14:19:18.537Z,12.97
2018-05-10T14:21:46.070Z,12.10
2018-05-10T14:24:20.084Z,14.10
2018-05-10T14:26:47.666Z,11.37
2018-05-10T14:29:15.238Z,12.70
2018-05-10T14:31:42.789Z,13.27
2018-05-10T14:34:10.375Z,10.93
2018-05-10T14:36:37.956Z,8.67
2018-05-10T14:39:05.523Z,12.87
2018-05-10T14:41:33.100Z,11.60
2018-05-10T14:44:00.626Z,9.67
2018-05-10T14:46:31.196Z,11.87
2018-05-10T14:48:58.999Z,12.73
2018-05-10T14:51:27.425Z,12.03
2018-05-10T14:53:55.038Z,14.40
2018-05-10T14:56:22.641Z,14.00
2018-05-10T14:58:50.214Z,10.23
2018-05-10T15:01:17.783Z,13.83
2018-05-10T15:03:45.326Z,13.10
2018-05-10T15:06:12.928Z,12.27
2018-05-10T15:11:05.350Z,14.20
2018-05-10T15:13:32.931Z,14.60
2018-05-10T15:16:00.531Z,11.07
2018-05-10T15:18:28.194Z,11.80
2018-05-10T15:20:55.810Z,13.27
2018-05-10T15:23:23.454Z,13.77
2018-05-10T15:25:53.538Z,13.13
2018-05-10T15:28:21.929Z,10.80
2018-05-10T15:30:49.674Z,11.00
2018-05-10T15:33:18.017Z,14.13
2018-05-10T15:35:48.646Z,11.90
2018-05-10T15:38:16.240Z,13.10
2018-05-10T15:40:44.582Z,9.90
2018-05-10T15:43:13.022Z,17.23
2018-05-10T15:45:43.526Z,16.03
2018-05-10T15:48:11.130Z,17.70
2018-05-10T15:50:38.769Z,12.77
2018-05-10T15:53:07.151Z,14.33
2018-05-10T15:55:44.624Z,13.57
2018-05-10T15:58:12.239Z,13.10
2018-05-10T16:00:39.807Z,15.67
2018-05-10T16:03:12.021Z,12.67
2018-05-10T16:05:42.327Z,13.70
2018-05-10T16:08:16.692Z,14.27
2018-05-10T16:10:45.761Z,11.70
2018-05-10T16:13:13.588Z,12.17
2018-05-10T16:15:42.022Z,12.57
2018-05-10T16:18:09.658Z,12.43
2018-05-10T16:20:37.248Z,14.20
2018-05-10T16:23:04.902Z,14.03
2018-05-10T16:25:32.544Z,14.00
2018-05-10T16:28:00.236Z,13.50
2018-05-10T16:30:27.834Z,11.83
2018-05-10T16:32:55.726Z,11.53
2018-05-10T16:35:23.271Z,12.63
2018-05-10T16:37:50.892Z,13.13
2018-05-10T16:40:18.475Z,9.70
2018-05-10T16:42:46.131Z,8.53
2018-05-10T16:45:13.737Z,11.57
2018-05-10T16:47:41.319Z,8.93
2018-05-10T16:50:08.909Z,12.70
2018-05-10T16:52:36.535Z,8.77
2018-05-10T16:55:04.149Z,11.27
2018-05-10T16:57:32.505Z,9.63
2018-05-10T17:00:00.115Z,8.73
2018-05-10T17:02:28.392Z,11.70
2018-05-10T17:04:56.009Z,9.13
2018-05-10T17:07:23.571Z,10.33
2018-05-10T17:09:51.214Z,11.83
2018-05-10T17:12:18.837Z,9.37
2018-05-10T17:14:46.407Z,10.47
2018-05-10T17:17:14.038Z,13.53
2018-05-10T17:19:41.599Z,10.83
2018-05-10T17:22:09.205Z,11.10
2018-05-10T17:24:36.768Z,12.03
2018-05-10T17:27:04.353Z,11.20
2018-05-10T17:29:31.942Z,10.07
2018-05-10T17:31:59.506Z,9.93
2018-05-10T17:34:27.112Z,13.07
2018-05-10T17:36:54.790Z,11.10
2018-05-10T17:39:22.369Z,8.53
2018-05-10T17:41:50.039Z,9.77
2018-05-10T17:44:17.613Z,11.40
2018-05-10T17:46:45.179Z,8.47
2018-05-10T17:49:13.674Z,11.17
2018-05-10T17:51:41.289Z,9.27
2018-05-10T17:54:08.862Z,9.47
2018-05-10T17:56:36.474Z,8.10
2018-05-10T17:59:04.039Z,8.83
2018-05-10T18:01:31.625Z,10.83
2018-05-10T18:03:59.181Z,8.03
2018-05-10T18:06:26.796Z,8.60
2018-05-10T18:08:54.433Z,8.27
2018-05-10T18:11:22.023Z,11.77
2018-05-10T18:13:49.643Z,10.80
2018-05-10T18:16:17.244Z,7.77
2018-05-10T18:18:44.834Z,10.30
2018-05-10T18:21:13.211Z,9.30
2018-05-10T18:23:40.745Z,9.13
2018-05-10T18:26:08.443Z,8.13
2018-05-10T18:28:36.034Z,12.23
2018-05-10T18:31:03.638Z,10.83
2018-05-10T18:33:31.250Z,10.70
2018-05-10T18:35:58.825Z,8.97
2018-05-10T18:38:26.417Z,9.80
2018-05-10T18:40:54.037Z,8.80
2018-05-10T18:43:21.621Z,11.10
2018-05-10T18:45:49.206Z,9.73
2018-05-10T18:48:16.826Z,10.30
2018-05-10T18:50:44.423Z,10.90
2018-05-10T18:53:11.996Z,12.03
2018-05-10T18:55:39.583Z,9.03
2018-05-10T18:58:07.191Z,10.20
2018-05-10T19:00:34.809Z,13.63
2018-05-10T19:03:02.389Z,11.53
2018-05-10T19:05:30.018Z,13.83
2018-05-10T19:07:57.569Z,13.37
2018-05-10T19:10:25.942Z,9.33
2018-05-10T19:12:54.274Z,10.73
2018-05-10T19:15:21.929Z,11.80
2018-05-10T19:17:49.581Z,13.20
2018-05-10T19:20:17.183Z,9.83
2018-05-10T19:22:44.767Z,12.37
2018-05-10T19:25:12.469Z,13.20
2018-05-10T19:27:40.105Z,13.80
2018-05-10T19:30:07.759Z,13.30
2018-05-10T19:32:36.122Z,11.63
2018-05-10T19:35:03.783Z,10.27
2018-05-10T19:37:31.411Z,11.57
2018-05-10T19:39:59.055Z,11.00
2018-05-10T19:42:26.685Z,10.13
2018-05-10T19:44:54.253Z,15.70
2018-05-10T19:47:21.855Z,13.73
2018-05-10T19:49:49.515Z,12.33
2018-05-10T19:52:17.149Z,11.73
2018-05-10T19:54:44.757Z,12.40
2018-05-10T19:57:12.343Z,11.93
2018-05-10T19:59:39.951Z,12.00
2018-05-10T20:02:08.339Z,13.17
2018-05-10T20:04:35.960Z,13.93
2018-05-10T20:07:03.582Z,9.83
2018-05-10T20:09:31.201Z,11.17
2018-05-10T20:11:59.659Z,14.23
2018-05-10T20:14:27.325Z,15.10
2018-05-10T20:16:55.014Z,12.07
2018-05-10T20:19:22.578Z,13.63
2018-05-10T20:21:50.976Z,10.97
2018-05-10T20:24:18.603Z,16.03
2018-05-10T20:26:46.987Z,12.60
2018-05-10T20:29:15.389Z,15.10
2018-05-10T20:31:43.054Z,12.27
2018-05-10T20:34:11.453Z,13.30
2018-05-10T20:36:39.068Z,15.63
2018-05-10T20:39:06.716Z,14.93
2018-05-10T20:41:34.286Z,14.03
2018-05-10T20:44:01.991Z,13.07
2018-05-10T20:46:29.647Z,15.33
2018-05-10T20:48:58.075Z,14.70
2018-05-10T20:51:26.565Z,11.87
2018-05-10T20:53:54.172Z,15.40
2018-05-10T20:56:21.836Z,12.47
2018-05-10T20:58:49.467Z,13.87
2018-05-10T21:01:17.120Z,12.53
2018-05-10T21:03:44.802Z,18.03
2018-05-10T21:06:12.439Z,12.83
2018-05-10T21:08:40.113Z,12.27
2018-05-10T21:11:07.818Z,10.93
2018-05-10T21:13:35.499Z,11.80
2018-05-10T21:16:03.199Z,14.70
2018-05-10T21:18:30.997Z,12.27
2018-05-10T21:21:01.191Z,11.33
2018-05-10T21:23:28.849Z,12.40
2018-05-10T21:25:56.478Z,11.63
2018-05-10T21:28:24.134Z,11.97
2018-05-10T21:30:51.729Z,17.50
2018-05-10T21:33:19.384Z,13.93
2018-05-10T21:35:46.991Z,14.00
2018-05-10T21:38:14.678Z,15.17
2018-05-10T21:40:42.299Z,11.97
2018-05-10T21:43:10.754Z,13.60
2018-05-10T21:45:38.449Z,14.20
2018-05-10T21:48:06.930Z,14.07
2018-05-10T21:50:34.640Z,13.80
2018-05-10T21:53:04.793Z,11.90
2018-05-10T21:55:32.514Z,17.20
2018-05-10T21:58:00.247Z,15.03
2018-05-10T22:00:27.989Z,12.13
2018-05-10T22:02:55.718Z,13.97
2018-05-10T22:05:30.126Z,13.47
2018-05-10T22:07:58.758Z,15.13
2018-05-10T22:10:26.501Z,12.93
2018-05-10T22:12:56.033Z,16.80
2018-05-10T22:15:23.590Z,12.93
2018-05-10T22:17:51.158Z,14.80
2018-05-10T22:20:18.676Z,12.93
2018-05-10T22:22:46.236Z,10.37
2018-05-10T22:25:14.565Z,12.13
2018-05-10T22:27:42.100Z,14.07
2018-05-10T22:30:09.753Z,12.00
2018-05-10T22:32:37.208Z,11.17
2018-05-10T22:35:04.860Z,15.90
2018-05-10T22:37:32.402Z,14.13
2018-05-10T22:39:59.968Z,17.60
2018-05-10T22:42:28.246Z,14.93
2018-05-10T22:44:55.804Z,16.23
2018-05-10T22:47:24.124Z,13.83
2018-05-10T22:49:52.404Z,16.93
2018-05-10T22:52:19.959Z,15.03
2018-05-10T22:54:48.245Z,15.27
2018-05-10T22:57:15.794Z,16.40
2018-05-10T22:59:45.133Z,13.57
2018-05-10T23:02:12.652Z,15.07
2018-05-10T23:04:40.175Z,16.70
2018-05-10T23:07:08.503Z,12.87
2018-05-10T23:09:36.781Z,11.37
2018-05-10T23:12:04.337Z,13.00
2018-05-10T23:14:31.885Z,15.20
2018-05-10T23:16:59.449Z,14.30
2018-05-10T23:19:27.729Z,16.63
2018-05-10T23:21:55.280Z,17.87
2018-05-10T23:24:22.839Z,17.87
2018-05-10T23:26:50.364Z,14.23
2018-05-10T23:29:17.926Z,15.17
2018-05-10T23:31:45.507Z,16.43
2018-05-10T23:34:13.013Z,17.27
2018-05-10T23:36:40.580Z,16.10
2018-05-10T23:39:08.136Z,16.60
2018-05-10T23:41:35.739Z,16.73
2018-05-10T23:44:03.364Z,14.33
2018-05-10T23:46:30.894Z,13.00
2018-05-10T23:48:58.477Z,15.17
2018-05-10T23:51:26.002Z,17.10
2018-05-10T23:53:53.519Z,18.17
2018-05-10T23:56:21.838Z,16.23
2018-05-10T23:58:50.133Z,12.47
